sensor_id;sensor_type;location;lat;lon;timestamp;pressure;altitude;pressure_sealevel;temperature;humidity
11223;BME280;5668;52.012;8.724;2023-02-12T00:01:12;102238.34;;;9.54;100.00
11223;BME280;5668;52.012;8.724;2023-02-12T00:03:39;102235.72;;;9.54;100.00
11223;BME280;5668;52.012;8.724;2023-02-12T00:06:07;102234.88;;;9.54;100.00
11223;BME280;5668;52.012;8.724;2023-02-12T00:08:37;102234.88;;;9.54;100.00
11223;BME280;5668;52.012;8.724;2023-02-12T00:11:09;102237.53;;;9.52;100.00
11223;BME280;5668;52.012;8.724;2023-02-12T00:13:37;102234.09;;;9.52;100.00
11223;BME280;5668;52.012;8.724;2023-02-12T00:16:06;102238.50;;;9.48;100.00
11223;BME280;5668;52.012;8.724;2023-02-12T00:18:34;102241.13;;;9.48;100.00
11223;BME280;5668;52.012;8.724;2023-02-12T00:21:02;102234.16;;;9.49;100.00
11223;BME280;5668;52.012;8.724;2023-02-12T00:23:29;102244.50;;;9.50;100.00
11223;BME280;5668;52.012;8.724;2023-02-12T00:25:58;102238.41;;;9.51;100.00
11223;BME280;5668;52.012;8.724;2023-02-12T00:28:25;102239.41;;;9.47;100.00
11223;BME280;5668;52.012;8.724;2023-02-12T00:30:52;102236.00;;;9.47;100.00
11223;BME280;5668;52.012;8.724;2023-02-12T00:33:20;102238.63;;;9.45;100.00
11223;BME280;5668;52.012;8.724;2023-02-12T00:35:54;102242.94;;;9.46;100.00
11223;BME280;5668;52.012;8.724;2023-02-12T00:38:22;102232.56;;;9.46;100.00
11223;BME280;5668;52.012;8.724;2023-02-12T00:40:49;102240.38;;;9.45;100.00
11223;BME280;5668;52.012;8.724;2023-02-12T00:43:18;102242.22;;;9.41;100.00
11223;BME280;5668;52.012;8.724;2023-02-12T00:45:45;102243.06;;;9.42;100.00
11223;BME280;5668;52.012;8.724;2023-02-12T00:48:13;102244.72;;;9.44;100.00
11223;BME280;5668;52.012;8.724;2023-02-12T00:50:42;102247.41;;;9.41;100.00
11223;BME280;5668;52.012;8.724;2023-02-12T00:53:10;102253.44;;;9.42;100.00
11223;BME280;5668;52.012;8.724;2023-02-12T00:55:37;102255.16;;;9.43;100.00
11223;BME280;5668;52.012;8.724;2023-02-12T00:58:04;102256.03;;;9.42;100.00
11223;BME280;5668;52.012;8.724;2023-02-12T01:00:33;102252.59;;;9.41;100.00
11223;BME280;5668;52.012;8.724;2023-02-12T01:03:00;102256.03;;;9.42;100.00
11223;BME280;5668;52.012;8.724;2023-02-12T01:05:28;102258.59;;;9.43;100.00
11223;BME280;5668;52.012;8.724;2023-02-12T01:07:56;102258.63;;;9.42;100.00
11223;BME280;5668;52.012;8.724;2023-02-12T01:10:23;102261.22;;;9.42;100.00
11223;BME280;5668;52.012;8.724;2023-02-12T01:12:51;102263.78;;;9.43;100.00
11223;BME280;5668;52.012;8.724;2023-02-12T01:15:18;102256.94;;;9.41;100.00
11223;BME280;5668;52.012;8.724;2023-02-12T01:17:47;102260.38;;;9.41;100.00
11223;BME280;5668;52.012;8.724;2023-02-12T01:20:18;102262.88;;;9.44;100.00
11223;BME280;5668;52.012;8.724;2023-02-12T01:22:46;102267.28;;;9.42;100.00
11223;BME280;5668;52.012;8.724;2023-02-12T01:25:13;102254.31;;;9.42;100.00
11223;BME280;5668;52.012;8.724;2023-02-12T01:27:41;102267.28;;;9.42;100.00
11223;BME280;5668;52.012;8.724;2023-02-12T01:30:11;102269.81;;;9.44;100.00
11223;BME280;5668;52.012;8.724;2023-02-12T01:32:39;102268.13;;;9.43;100.00
11223;BME280;5668;52.012;8.724;2023-02-12T01:35:08;102272.47;;;9.42;100.00
11223;BME280;5668;52.012;8.724;2023-02-12T01:37:36;102274.16;;;9.43;100.00
11223;BME280;5668;52.012;8.724;2023-02-12T01:40:05;102272.47;;;9.42;100.00
11223;BME280;5668;52.012;8.724;2023-02-12T01:42:34;102271.53;;;9.45;100.00
11223;BME280;5668;52.012;8.724;2023-02-12T01:45:46;102275.94;;;9.41;100.00
11223;BME280;5668;52.012;8.724;2023-02-12T01:48:16;102272.50;;;9.41;100.00
11223;BME280;5668;52.012;8.724;2023-02-12T01:50:46;102274.16;;;9.43;100.00
11223;BME280;5668;52.012;8.724;2023-02-12T01:53:15;102273.31;;;9.43;100.00
11223;BME280;5668;52.012;8.724;2023-02-12T01:55:46;102272.47;;;9.42;100.00
11223;BME280;5668;52.012;8.724;2023-02-12T01:58:15;102268.97;;;9.43;100.00
11223;BME280;5668;52.012;8.724;2023-02-12T02:00:43;102282.75;;;9.45;100.00
11223;BME280;5668;52.012;8.724;2023-02-12T02:03:11;102271.56;;;9.43;100.00
11223;BME280;5668;52.012;8.724;2023-02-12T02:05:45;102274.06;;;9.46;100.00
11223;BME280;5668;52.012;8.724;2023-02-12T02:08:14;102268.88;;;9.46;100.00
11223;BME280;5668;52.012;8.724;2023-02-12T02:10:41;102270.69;;;9.44;100.00
11223;BME280;5668;52.012;8.724;2023-02-12T02:13:08;102267.28;;;9.42;100.00
11223;BME280;5668;52.012;8.724;2023-02-12T02:15:57;102262.88;;;9.44;100.00
11223;BME280;5668;52.012;8.724;2023-02-12T02:18:30;102261.19;;;9.43;100.00
11223;BME280;5668;52.012;8.724;2023-02-12T02:24:34;102266.44;;;9.42;100.00
11223;BME280;5668;52.012;8.724;2023-02-12T02:27:23;102264.72;;;9.41;100.00
11223;BME280;5668;52.012;8.724;2023-02-12T02:30:27;102266.44;;;9.42;100.00
11223;BME280;5668;52.012;8.724;2023-02-12T02:33:17;102255.19;;;9.41;100.00
11223;BME280;5668;52.012;8.724;2023-02-12T02:35:52;102257.91;;;9.38;100.00
11223;BME280;5668;52.012;8.724;2023-02-12T02:38:26;102248.38;;;9.39;100.00
11223;BME280;5668;52.012;8.724;2023-02-12T02:41:01;102250.91;;;9.40;100.00
11223;BME280;5668;52.012;8.724;2023-02-12T02:43:34;102253.50;;;9.40;100.00
11223;BME280;5668;52.012;8.724;2023-02-12T02:46:07;102255.19;;;9.41;100.00
11223;BME280;5668;52.012;8.724;2023-02-12T02:48:38;102248.25;;;9.42;100.00
11223;BME280;5668;52.012;8.724;2023-02-12T02:51:09;102246.50;;;9.42;100.00
11223;BME280;5668;52.012;8.724;2023-02-12T02:53:41;102246.50;;;9.42;100.00
11223;BME280;5668;52.012;8.724;2023-02-12T02:56:13;102243.91;;;9.42;100.00
11223;BME280;5668;52.012;8.724;2023-02-12T02:58:45;102248.22;;;9.43;100.00
11223;BME280;5668;52.012;8.724;2023-02-12T03:01:17;102254.31;;;9.42;100.00
11223;BME280;5668;52.012;8.724;2023-02-12T03:03:49;102254.31;;;9.42;100.00
11223;BME280;5668;52.012;8.724;2023-02-12T03:06:24;102250.84;;;9.42;100.00
11223;BME280;5668;52.012;8.724;2023-02-12T03:08:55;102250.91;;;9.40;100.00
11223;BME280;5668;52.012;8.724;2023-02-12T03:11:25;102252.69;;;9.40;100.00
11223;BME280;5668;52.012;8.724;2023-02-12T03:13:56;102250.00;;;9.41;100.00
11223;BME280;5668;52.012;8.724;2023-02-12T03:16:28;102256.03;;;9.42;100.00
11223;BME280;5668;52.012;8.724;2023-02-12T03:19:02;102253.50;;;9.40;100.00
11223;BME280;5668;52.012;8.724;2023-02-12T03:21:36;102244.91;;;9.40;100.00
11223;BME280;5668;52.012;8.724;2023-02-12T03:24:11;102248.31;;;9.40;100.00
11223;BME280;5668;52.012;8.724;2023-02-12T03:26:43;102248.31;;;9.40;100.00
11223;BME280;5668;52.012;8.724;2023-02-12T03:29:12;102248.44;;;9.37;100.00
11223;BME280;5668;52.012;8.724;2023-02-12T03:31:52;102251.06;;;9.36;100.00
11223;BME280;5668;52.012;8.724;2023-02-12T03:34:26;102243.31;;;9.34;100.00
11223;BME280;5668;52.012;8.724;2023-02-12T03:36:58;102250.22;;;9.35;100.00
11223;BME280;5668;52.012;8.724;2023-02-12T03:39:31;102248.53;;;9.34;100.00
11223;BME280;5668;52.012;8.724;2023-02-12T03:42:04;102251.06;;;9.36;100.00
11223;BME280;5668;52.012;8.724;2023-02-12T03:44:44;102245.03;;;9.35;100.00
11223;BME280;5668;52.012;8.724;2023-02-12T03:47:21;102243.31;;;9.34;100.00
11223;BME280;5668;52.012;8.724;2023-02-12T03:49:56;102247.66;;;9.33;100.00
11223;BME280;5668;52.012;8.724;2023-02-12T03:52:27;102252.00;;;9.33;100.00
11223;BME280;5668;52.012;8.724;2023-02-12T03:54:55;102247.75;;;9.32;100.00
11223;BME280;5668;52.012;8.724;2023-02-12T03:57:24;102252.00;;;9.33;100.00
11223;BME280;5668;52.012;8.724;2023-02-12T03:59:56;102252.09;;;9.31;100.00
11223;BME280;5668;52.012;8.724;2023-02-12T04:02:25;102255.53;;;9.32;100.00
11223;BME280;5668;52.012;8.724;2023-02-12T04:04:52;102261.63;;;9.31;100.00
11223;BME280;5668;52.012;8.724;2023-02-12T04:07:19;102258.16;;;9.30;100.00
11223;BME280;5668;52.012;8.724;2023-02-12T04:09:47;102263.34;;;9.30;100.00
11223;BME280;5668;52.012;8.724;2023-02-12T04:15:17;102284.16;;;9.29;100.00
11223;BME280;5668;52.012;8.724;2023-02-12T04:17:54;102279.00;;;9.27;100.00
11223;BME280;5668;52.012;8.724;2023-02-12T04:20:29;102284.16;;;9.29;100.00
11223;BME280;5668;52.012;8.724;2023-02-12T04:23:10;102288.53;;;9.27;100.00
11223;BME280;5668;52.012;8.724;2023-02-12T04:25:48;102292.88;;;9.26;100.00
11223;BME280;5668;52.012;8.724;2023-02-12T04:28:32;102293.72;;;9.27;100.00
11223;BME280;5668;52.012;8.724;2023-02-12T04:31:05;102301.56;;;9.25;100.00
11223;BME280;5668;52.012;8.724;2023-02-12T04:33:41;102303.25;;;9.26;100.00
11223;BME280;5668;52.012;8.724;2023-02-12T04:36:15;102311.06;;;9.25;100.00
11223;BME280;5668;52.012;8.724;2023-02-12T04:38:50;102312.78;;;9.26;100.00
11223;BME280;5668;52.012;8.724;2023-02-12T04:41:18;102316.25;;;9.25;100.00
11223;BME280;5668;52.012;8.724;2023-02-12T04:43:45;102308.47;;;9.25;100.00
11223;BME280;5668;52.012;8.724;2023-02-12T04:46:13;102317.13;;;9.25;100.00
11223;BME280;5668;52.012;8.724;2023-02-12T04:48:52;102307.59;;;9.26;100.00
11223;BME280;5668;52.012;8.724;2023-02-12T04:51:19;102317.97;;;9.26;100.00
11223;BME280;5668;52.012;8.724;2023-02-12T04:53:47;102321.47;;;9.25;100.00
11223;BME280;5668;52.012;8.724;2023-02-12T04:56:15;102324.13;;;9.23;100.00
11223;BME280;5668;52.012;8.724;2023-02-12T04:58:43;102321.47;;;9.25;100.00
11223;BME280;5668;52.012;8.724;2023-02-12T05:01:10;102309.41;;;9.24;100.00
11223;BME280;5668;52.012;8.724;2023-02-12T05:03:38;102318.84;;;9.25;100.00
11223;BME280;5668;52.012;8.724;2023-02-12T05:06:08;102318.09;;;9.23;100.00
11223;BME280;5668;52.012;8.724;2023-02-12T05:08:35;102312.91;;;9.23;100.00
11223;BME280;5668;52.012;8.724;2023-02-12T05:11:04;102312.03;;;9.22;100.00
11223;BME280;5668;52.012;8.724;2023-02-12T05:13:31;102320.72;;;9.21;100.00
11223;BME280;5668;52.012;8.724;2023-02-12T05:15:58;102319.88;;;9.21;100.00
11223;BME280;5668;52.012;8.724;2023-02-12T05:18:25;102320.72;;;9.21;100.00
11223;BME280;5668;52.012;8.724;2023-02-12T05:20:56;102313.84;;;9.20;100.00
11223;BME280;5668;52.012;8.724;2023-02-12T05:23:27;102314.69;;;9.21;100.00
11223;BME280;5668;52.012;8.724;2023-02-12T05:25:58;102312.97;;;9.20;100.00
11223;BME280;5668;52.012;8.724;2023-02-12T05:28:26;102316.47;;;9.19;100.00
11223;BME280;5668;52.012;8.724;2023-02-12T05:30:53;102319.97;;;9.18;100.00
11223;BME280;5668;52.012;8.724;2023-02-12T05:33:20;102306.97;;;9.18;100.00
11223;BME280;5668;52.012;8.724;2023-02-12T05:35:48;102313.03;;;9.18;100.00
11223;BME280;5668;52.012;8.724;2023-02-12T05:38:15;102310.44;;;9.18;100.00
11223;BME280;5668;52.012;8.724;2023-02-12T05:40:44;102310.44;;;9.18;100.00
11223;BME280;5668;52.012;8.724;2023-02-12T05:43:11;102311.28;;;9.19;100.00
11223;BME280;5668;52.012;8.724;2023-02-12T05:45:38;102313.91;;;9.17;100.00
11223;BME280;5668;52.012;8.724;2023-02-12T05:48:08;102321.69;;;9.17;100.00
11223;BME280;5668;52.012;8.724;2023-02-12T05:50:35;102319.09;;;9.17;100.00
11223;BME280;5668;52.012;8.724;2023-02-12T05:53:02;102315.72;;;9.15;100.00
11223;BME280;5668;52.012;8.724;2023-02-12T05:55:29;102316.59;;;9.16;100.00
11223;BME280;5668;52.012;8.724;2023-02-12T05:57:58;102318.31;;;9.15;100.00
11223;BME280;5668;52.012;8.724;2023-02-12T06:00:25;102321.78;;;9.16;100.00
11223;BME280;5668;52.012;8.724;2023-02-12T06:02:52;102320.03;;;9.16;100.00
11223;BME280;5668;52.012;8.724;2023-02-12T06:05:20;102322.66;;;9.15;100.00
11223;BME280;5668;52.012;8.724;2023-02-12T06:07:47;102316.59;;;9.16;100.00
11223;BME280;5668;52.012;8.724;2023-02-12T06:10:14;102317.47;;;9.15;100.00
11223;BME280;5668;52.012;8.724;2023-02-12T06:12:42;102318.38;;;9.14;100.00
11223;BME280;5668;52.012;8.724;2023-02-12T06:15:10;102315.78;;;9.14;100.00
11223;BME280;5668;52.012;8.724;2023-02-12T06:17:37;102311.47;;;9.13;100.00
11223;BME280;5668;52.012;8.724;2023-02-12T06:20:06;102309.78;;;9.12;100.00
11223;BME280;5668;52.012;8.724;2023-02-12T06:22:34;102312.38;;;9.12;100.00
11223;BME280;5668;52.012;8.724;2023-02-12T06:25:03;102306.28;;;9.13;100.00
11223;BME280;5668;52.012;8.724;2023-02-12T06:27:31;102314.97;;;9.12;100.00
11223;BME280;5668;52.012;8.724;2023-02-12T06:29:58;102314.97;;;9.12;100.00
11223;BME280;5668;52.012;8.724;2023-02-12T06:32:27;102318.44;;;9.11;100.00
11223;BME280;5668;52.012;8.724;2023-02-12T06:34:54;102319.34;;;9.10;100.00
11223;BME280;5668;52.012;8.724;2023-02-12T06:37:21;102313.34;;;9.09;100.00
11223;BME280;5668;52.012;8.724;2023-02-12T06:39:48;102309.03;;;9.08;100.00
11223;BME280;5668;52.012;8.724;2023-02-12T06:42:15;102315.09;;;9.09;100.00
11223;BME280;5668;52.012;8.724;2023-02-12T06:44:43;102315.97;;;9.08;100.00
11223;BME280;5668;52.012;8.724;2023-02-12T06:47:11;102315.97;;;9.08;100.00
11223;BME280;5668;52.012;8.724;2023-02-12T06:49:40;102329.78;;;9.08;100.00
11223;BME280;5668;52.012;8.724;2023-02-12T06:52:07;102332.44;;;9.07;100.00
11223;BME280;5668;52.012;8.724;2023-02-12T06:54:34;102335.91;;;9.06;100.00
11223;BME280;5668;52.012;8.724;2023-02-12T06:57:01;102341.09;;;9.06;100.00
11223;BME280;5668;52.012;8.724;2023-02-12T06:59:29;102346.28;;;9.06;100.00
11223;BME280;5668;52.012;8.724;2023-02-12T07:01:56;102341.94;;;9.06;100.00
11223;BME280;5668;52.012;8.724;2023-02-12T07:04:23;102351.47;;;9.06;100.00
11223;BME280;5668;52.012;8.724;2023-02-12T07:06:52;102354.97;;;9.05;100.00
11223;BME280;5668;52.012;8.724;2023-02-12T07:09:19;102358.44;;;9.04;100.00
11223;BME280;5668;52.012;8.724;2023-02-12T07:11:46;102358.44;;;9.04;100.00
11223;BME280;5668;52.012;8.724;2023-02-12T07:14:14;102361.94;;;9.03;100.00
11223;BME280;5668;52.012;8.724;2023-02-12T07:16:42;102363.63;;;9.04;100.00
11223;BME280;5668;52.012;8.724;2023-02-12T07:19:12;102368.81;;;9.04;100.00
11223;BME280;5668;52.012;8.724;2023-02-12T07:21:39;102369.66;;;9.04;100.00
11223;BME280;5668;52.012;8.724;2023-02-12T07:24:09;102380.00;;;9.06;100.00
11223;BME280;5668;52.012;8.724;2023-02-12T07:26:38;102380.88;;;9.05;100.00
11223;BME280;5668;52.012;8.724;2023-02-12T07:29:05;102382.59;;;9.06;100.00
11223;BME280;5668;52.012;8.724;2023-02-12T07:31:32;102380.88;;;9.05;100.00
11223;BME280;5668;52.012;8.724;2023-02-12T07:34:00;102386.94;;;9.05;100.00
11223;BME280;5668;52.012;8.724;2023-02-12T07:36:28;102387.78;;;9.06;100.00
11223;BME280;5668;52.012;8.724;2023-02-12T07:38:56;102399.03;;;9.05;100.00
11223;BME280;5668;52.012;8.724;2023-02-12T07:41:27;102406.81;;;9.05;100.00
11223;BME280;5668;52.012;8.724;2023-02-12T07:43:56;102399.03;;;9.05;100.00
11223;BME280;5668;52.012;8.724;2023-02-12T07:46:25;102399.91;;;9.05;100.00
11223;BME280;5668;52.012;8.724;2023-02-12T07:48:55;102405.09;;;9.05;100.00
11223;BME280;5668;52.012;8.724;2023-02-12T07:51:23;102406.81;;;9.05;100.00
11223;BME280;5668;52.012;8.724;2023-02-12T07:53:51;102406.81;;;9.05;100.00
11223;BME280;5668;52.012;8.724;2023-02-12T07:56:21;102406.81;;;9.05;100.00
11223;BME280;5668;52.012;8.724;2023-02-12T07:58:51;102413.72;;;9.06;100.00
11223;BME280;5668;52.012;8.724;2023-02-12T08:01:21;102411.94;;;9.08;100.00
11223;BME280;5668;52.012;8.724;2023-02-12T08:03:49;102410.28;;;9.05;100.00
11223;BME280;5668;52.012;8.724;2023-02-12T08:06:20;102413.72;;;9.06;100.00
11223;BME280;5668;52.012;8.724;2023-02-12T08:08:50;102411.94;;;9.08;100.00
11223;BME280;5668;52.012;8.724;2023-02-12T08:11:17;102416.31;;;9.06;100.00
11223;BME280;5668;52.012;8.724;2023-02-12T08:13:45;102420.59;;;9.07;100.00
11223;BME280;5668;52.012;8.724;2023-02-12T08:16:15;102424.91;;;9.08;100.00
11223;BME280;5668;52.012;8.724;2023-02-12T08:18:43;102416.28;;;9.07;100.00
11223;BME280;5668;52.012;8.724;2023-02-12T08:21:12;102423.16;;;9.08;100.00
11223;BME280;5668;52.012;8.724;2023-02-12T08:23:40;102419.59;;;9.11;100.00
11223;BME280;5668;52.012;8.724;2023-02-12T08:26:09;102426.53;;;9.10;100.00
11223;BME280;5668;52.012;8.724;2023-02-12T08:28:39;102426.50;;;9.12;100.00
11223;BME280;5668;52.012;8.724;2023-02-12T08:31:08;102428.25;;;9.11;100.00
11223;BME280;5668;52.012;8.724;2023-02-12T08:33:37;102436.03;;;9.11;100.00
11223;BME280;5668;52.012;8.724;2023-02-12T08:36:06;102436.88;;;9.12;100.00
11223;BME280;5668;52.012;8.724;2023-02-12T08:38:35;102436.78;;;9.15;100.00
11223;BME280;5668;52.012;8.724;2023-02-12T08:41:04;102439.38;;;9.15;100.00
11223;BME280;5668;52.012;8.724;2023-02-12T08:43:32;102436.75;;;9.16;100.00
11223;BME280;5668;52.012;8.724;2023-02-12T08:46:04;102431.56;;;9.16;100.00
11223;BME280;5668;52.012;8.724;2023-02-12T08:48:31;102440.97;;;9.19;100.00
11223;BME280;5668;52.012;8.724;2023-02-12T08:51:06;102439.28;;;9.18;100.00
11223;BME280;5668;52.012;8.724;2023-02-12T08:53:34;102447.06;;;9.18;100.00
11223;BME280;5668;52.012;8.724;2023-02-12T08:56:02;102447.03;;;9.19;100.00
11223;BME280;5668;52.012;8.724;2023-02-12T08:58:29;102448.72;;;9.20;100.00
11223;BME280;5668;52.012;8.724;2023-02-12T09:00:56;102433.13;;;9.22;100.00
11223;BME280;5668;52.012;8.724;2023-02-12T09:03:23;102444.31;;;9.24;100.00
11223;BME280;5668;52.012;8.724;2023-02-12T09:05:51;102446.84;;;9.25;100.00
11223;BME280;5668;52.012;8.724;2023-02-12T09:08:19;102450.25;;;9.27;100.00
11223;BME280;5668;52.012;8.724;2023-02-12T09:10:47;102448.53;;;9.26;100.00
11223;BME280;5668;52.012;8.724;2023-02-12T09:13:14;102451.09;;;9.28;100.00
11223;BME280;5668;52.012;8.724;2023-02-12T09:15:43;102445.91;;;9.28;100.00
11223;BME280;5668;52.012;8.724;2023-02-12T09:18:11;102451.94;;;9.28;100.00
11223;BME280;5668;52.012;8.724;2023-02-12T09:20:39;102457.94;;;9.30;100.00
11223;BME280;5668;52.012;8.724;2023-02-12T09:23:07;102462.25;;;9.31;100.00
11223;BME280;5668;52.012;8.724;2023-02-12T09:25:39;102460.50;;;9.32;100.00
11223;BME280;5668;52.012;8.724;2023-02-12T09:28:06;102462.16;;;9.33;100.00
11223;BME280;5668;52.012;8.724;2023-02-12T09:30:34;102465.56;;;9.35;100.00
11223;BME280;5668;52.012;8.724;2023-02-12T09:33:02;102463.78;;;9.37;100.00
11223;BME280;5668;52.012;8.724;2023-02-12T09:35:29;102465.50;;;9.38;100.00
11223;BME280;5668;52.012;8.724;2023-02-12T09:37:57;102468.09;;;9.38;100.00
11223;BME280;5668;52.012;8.724;2023-02-12T09:40:30;102466.28;;;9.40;100.00
11223;BME280;5668;52.012;8.724;2023-02-12T09:43:09;102470.56;;;9.41;100.00
11223;BME280;5668;52.012;8.724;2023-02-12T09:45:41;102476.66;;;9.40;100.00
11223;BME280;5668;52.012;8.724;2023-02-12T09:48:34;102482.66;;;9.42;100.00
11223;BME280;5668;52.012;8.724;2023-02-12T09:51:09;102478.34;;;9.41;100.00
11223;BME280;5668;52.012;8.724;2023-02-12T09:53:39;102477.44;;;9.44;100.00
11223;BME280;5668;52.012;8.724;2023-02-12T09:56:12;102488.66;;;9.44;100.00
11223;BME280;5668;52.012;8.724;2023-02-12T09:58:46;102482.66;;;9.42;100.00
11223;BME280;5668;52.012;8.724;2023-02-12T10:01:17;102484.34;;;9.43;100.00
11223;BME280;5668;52.012;8.724;2023-02-12T10:03:46;102485.16;;;9.45;100.00
11223;BME280;5668;52.012;8.724;2023-02-12T10:06:15;102479.00;;;9.48;100.00
11223;BME280;5668;52.012;8.724;2023-02-12T10:09:01;102479.88;;;9.48;100.00
11223;BME280;5668;52.012;8.724;2023-02-12T10:11:46;102485.06;;;9.48;100.00
11223;BME280;5668;52.012;8.724;2023-02-12T10:14:43;102485.06;;;9.48;100.00
11223;BME280;5668;52.012;8.724;2023-02-12T10:17:22;102493.66;;;9.50;100.00
11223;BME280;5668;52.012;8.724;2023-02-12T10:22:52;102488.47;;;9.50;100.00
11223;BME280;5668;52.012;8.724;2023-02-12T10:25:27;102477.16;;;9.53;100.00
11223;BME280;5668;52.012;8.724;2023-02-12T10:27:59;102481.44;;;9.54;100.00
11223;BME280;5668;52.012;8.724;2023-02-12T10:30:38;102484.09;;;9.52;100.00
11223;BME280;5668;52.012;8.724;2023-02-12T10:33:12;102483.19;;;9.53;100.00
11223;BME280;5668;52.012;8.724;2023-02-12T10:35:45;102479.72;;;9.54;100.00
11223;BME280;5668;52.012;8.724;2023-02-12T10:38:18;102483.09;;;9.56;100.00
11223;BME280;5668;52.012;8.724;2023-02-12T10:40:46;102484.78;;;9.57;100.00
11223;BME280;5668;52.012;8.724;2023-02-12T10:43:15;102486.44;;;9.60;100.00
11223;BME280;5668;52.012;8.724;2023-02-12T10:45:44;102483.84;;;9.60;100.00
11223;BME280;5668;52.012;8.724;2023-02-12T10:48:15;102474.31;;;9.60;100.00
11223;BME280;5668;52.012;8.724;2023-02-12T10:50:50;102480.38;;;9.61;100.00
11223;BME280;5668;52.012;8.724;2023-02-12T10:53:21;102472.50;;;9.62;100.00
11223;BME280;5668;52.012;8.724;2023-02-12T10:55:49;102473.34;;;9.63;100.00
11223;BME280;5668;52.012;8.724;2023-02-12T10:58:20;102471.63;;;9.63;100.00
11223;BME280;5668;52.012;8.724;2023-02-12T11:00:56;102468.94;;;9.66;100.00
11223;BME280;5668;52.012;8.724;2023-02-12T11:03:28;102466.28;;;9.68;100.00
11223;BME280;5668;52.012;8.724;2023-02-12T11:06:12;102473.06;;;9.72;100.00
11223;BME280;5668;52.012;8.724;2023-02-12T11:08:39;102461.75;;;9.75;100.00
11223;BME280;5668;52.012;8.724;2023-02-12T11:11:10;102460.81;;;9.77;100.00
11223;BME280;5668;52.012;8.724;2023-02-12T11:13:40;102459.97;;;9.77;100.00
11223;BME280;5668;52.012;8.724;2023-02-12T11:16:12;102454.66;;;9.80;100.00
11223;BME280;5668;52.012;8.724;2023-02-12T11:18:39;102457.22;;;9.81;100.00
11223;BME280;5668;52.012;8.724;2023-02-12T11:21:09;102454.56;;;9.83;100.00
11223;BME280;5668;52.012;8.724;2023-02-12T11:23:39;102464.06;;;9.84;100.00
11223;BME280;5668;52.012;8.724;2023-02-12T11:26:23;102457.91;;;9.86;100.00
11223;BME280;5668;52.012;8.724;2023-02-12T11:28:54;102456.16;;;9.87;100.00
11223;BME280;5668;52.012;8.724;2023-02-12T11:31:24;102450.97;;;9.87;100.00
11223;BME280;5668;52.012;8.724;2023-02-12T11:34:12;102448.28;;;9.90;100.00
11223;BME280;5668;52.012;8.724;2023-02-12T11:36:42;102449.09;;;9.92;100.00
11223;BME280;5668;52.012;8.724;2023-02-12T11:39:19;102442.91;;;9.94;100.00
11223;BME280;5668;52.012;8.724;2023-02-12T11:41:51;102436.88;;;9.94;100.00
11223;BME280;5668;52.012;8.724;2023-02-12T11:44:21;102439.47;;;9.94;100.00
11223;BME280;5668;52.012;8.724;2023-02-12T11:46:53;102441.19;;;9.95;100.00
11223;BME280;5668;52.012;8.724;2023-02-12T11:49:23;102442.91;;;9.94;100.00
11223;BME280;5668;52.012;8.724;2023-02-12T11:51:51;102446.34;;;9.96;100.00
11223;BME280;5668;52.012;8.724;2023-02-12T11:54:22;102441.03;;;9.99;100.00
11223;BME280;5668;52.012;8.724;2023-02-12T11:56:51;102436.63;;;10.01;100.00
11223;BME280;5668;52.012;8.724;2023-02-12T11:59:35;102436.66;;;10.00;100.00
11223;BME280;5668;52.012;8.724;2023-02-12T12:02:21;102441.78;;;10.03;100.00
11223;BME280;5668;52.012;8.724;2023-02-12T12:04:52;102430.53;;;10.02;100.00
11223;BME280;5668;52.012;8.724;2023-02-12T12:07:24;102427.88;;;10.04;100.00
11223;BME280;5668;52.012;8.724;2023-02-12T12:09:56;102432.16;;;10.06;100.00
11223;BME280;5668;52.012;8.724;2023-02-12T12:12:31;102432.88;;;10.10;100.00
11223;BME280;5668;52.012;8.724;2023-02-12T12:15:09;102428.53;;;10.10;100.00
11223;BME280;5668;52.012;8.724;2023-02-12T12:18:05;102425.88;;;10.12;100.00
11223;BME280;5668;52.012;8.724;2023-02-12T12:20:57;102425.03;;;10.12;100.00
11223;BME280;5668;52.012;8.724;2023-02-12T12:23:33;102429.38;;;10.11;100.00
11223;BME280;5668;52.012;8.724;2023-02-12T12:26:03;102422.53;;;10.08;100.00
11223;BME280;5668;52.012;8.724;2023-02-12T12:28:38;102423.34;;;10.10;100.00
11223;BME280;5668;52.012;8.724;2023-02-12T12:31:10;102423.28;;;10.12;100.00
11223;BME280;5668;52.012;8.724;2023-02-12T12:33:43;102420.69;;;10.12;100.00
11223;BME280;5668;52.012;8.724;2023-02-12T12:39:16;102421.75;;;10.06;100.00
11223;BME280;5668;52.012;8.724;2023-02-12T12:42:04;102413.09;;;10.06;100.00
11223;BME280;5668;52.012;8.724;2023-02-12T12:44:49;102415.81;;;10.03;100.00
11223;BME280;5668;52.012;8.724;2023-02-12T12:47:28;102412.53;;;9.98;100.00
11223;BME280;5668;52.012;8.724;2023-02-12T12:50:21;102413.38;;;9.98;100.00
11223;BME280;5668;52.012;8.724;2023-02-12T12:53:14;102401.38;;;9.94;100.00
11223;BME280;5668;52.012;8.724;2023-02-12T12:56:09;102401.38;;;9.94;100.00
11223;BME280;5668;52.012;8.724;2023-02-12T12:58:59;102397.72;;;10.00;100.00
11223;BME280;5668;52.012;8.724;2023-02-12T13:01:53;102398.50;;;10.02;100.00
11223;BME280;5668;52.012;8.724;2023-02-12T13:07:35;102396.41;;;10.13;100.00
11223;BME280;5668;52.012;8.724;2023-02-12T13:10:17;102394.59;;;10.15;100.00
11223;BME280;5668;52.012;8.724;2023-02-12T13:12:58;102393.84;;;10.12;100.00
11223;BME280;5668;52.012;8.724;2023-02-12T13:15:35;102390.41;;;10.11;100.00
11223;BME280;5668;52.012;8.724;2023-02-12T13:18:14;102394.66;;;10.14;100.00
11223;BME280;5668;52.012;8.724;2023-02-12T13:20:50;102386.88;;;10.14;100.00
11223;BME280;5668;52.012;8.724;2023-02-12T13:23:28;102383.47;;;10.12;100.00
11223;BME280;5668;52.012;8.724;2023-02-12T13:26:04;102384.31;;;10.12;100.00
11223;BME280;5668;52.012;8.724;2023-02-12T13:28:35;102383.56;;;10.08;100.00
11223;BME280;5668;52.012;8.724;2023-02-12T13:31:05;102388.84;;;10.07;100.00
11223;BME280;5668;52.012;8.724;2023-02-12T13:33:38;102387.19;;;10.04;100.00
11223;BME280;5668;52.012;8.724;2023-02-12T13:36:09;102381.94;;;10.06;100.00
11223;BME280;5668;52.012;8.724;2023-02-12T13:38:42;102380.97;;;10.08;100.00